Winston, Virginia
Current Conditions -  °F | °C
As of 12:15 PM on Sunday 21 Dec 2014 (Local Time) from KCJR Reporting Station
Scattered Clouds Scattered Clouds  
Wind Chill: 43°   Ceiling: Unl
Heat Index: 43°   Visibility: 10mi
Dew Point: 27°   Wind: 3mph
Humidity: 53%   Direction: 340°NNW
Pressure: 30.33"   Gusts: NA
Location:  38.467°N, 77.9818°W
Report Text: KCJR 211715Z AUTO 34003KT 10SM SCT070 06/M03 A3033 RMK AO2
Loading
Personal Weather Stations






























Interactive Weather Map New forecast layout! Learn more

10-Day Weather Forecast

Advertisements
Track Severe Weather on mobile